AirNav   Pilot Hours Calculator
 
 1197 users online  

12SC Over the Hill Airport
Elgin, South Carolina, USA

GOING TO ELGIN?


FAA INFORMATION EFFECTIVE 20 JUNE 2019

Location

FAA Identifier: 12SC
Lat/Long: 34-08-29.0000N / 080-44-48.0000W
34-08.483333N / 080-44.800000W
34.1413889 / -80.7466667
(estimated)
Elevation: 250 ft. / 76 m (estimated)
Variation: 06W (2000)
From city: 5 miles SE of ELGIN, SC
Time zone: UTC -4 (UTC -5 during Standard Time)
Zip code: 29045

Airport Operations

Airport use: Private use. Permission required prior to landing
Activation date: 07/2002
Control tower: no
ARTCC: JACKSONVILLE CENTER
FSS: ANDERSON FLIGHT SERVICE STATION
Attendance: UNATNDD
Segmented circle: no

Airport Communications

WX AWOS-3 at CDN (12 nm NE): 119.975 (803-424-1979)
WX ASOS at CUB (16 nm SW): 118.675 (803-929-0665)

Nearby radio navigation aids

VOR radial/distance  VOR name  Freq  Var
MMTr020/13.3MC ENTIRE VORTAC113.2008W
CAEr044/22.9COLUMBIA VORTAC114.7002W
CTFr220/38.5CHESTERFIELD VOR/DME108.2003W

 
NDB name  Hdg/Dist  Freq  Var  ID
SUMTER302/21.225207WSMS ... -- ...
HARTSVILLE250/34.934107WHVS .... ...- ...
LANCASTER178/35.340007WLKR .-.. -.- .-.

Airport Services

Runway Information

Runway 9/27

Dimensions: 2000 x 100 ft. / 610 x 30 m
Surface: turf
RUNWAY 9  RUNWAY 27
Traffic pattern: leftleft

Airport Ownership and Management from official FAA records

Ownership: Privately-owned
Owner: DAVID SMITH
P.O. BOX 1204
ELGIN, SC 29045
Phone 803-438-3085
Manager: DAVID SMITH
P.O. BOX 1204
ELGIN, SC 29045
Phone 803-438-3085

Additional Remarks

FOR CD CTC JACKSONVILLE ARTCC AT 904-845-1592.

Instrument Procedures

There are no published instrument procedures at 12SC.

Some nearby airports with instrument procedures:

KCDN - Woodward Field Airport (12 nm NE)
KMMT - Mc Entire Joint National Guard Base (14 nm S)
KCUB - Jim Hamilton L B Owens Airport (16 nm SW)
KSSC - Shaw Air Force Base (17 nm SE)
KFDW - Fairfield County Airport (21 nm NW)
 
Loc | Ops | Rwys | IFR | FBO | Links
Com | Nav | Svcs | Stats | Notes
Area around 12SC (Over the Hill Airport)
 
Road maps at: MapQuest Bing Google
 
Aerial photo
No photo
 
Sectional chart

 
Airport distance calculator
Flying to Over the Hill Airport? Find the distance to fly.

From to 12SC

Sunrise and sunset
Times for 24-Jun-2019
 Local
(UTC-4)
 Zulu
(UTC)
Morning civil twilight05:4409:44
Sunrise06:1310:13
Sunset20:3700:37
Evening civil twilight21:0701:07

Current date and time
Zulu (UTC)  24-Jun-2019 22:50:10
Local (UTC-4)  24-Jun-2019 18:50:10
 
METAR
KCDN 
12nm NE 
242235Z AUTO 21010KT 9SM CLR 33/20 A2987 RMK AO2
KMMT 
14nm S 
242156Z AUTO 19011KT 10SM CLR 33/20 A2987 RMK AO2 SLP115 T03300198 $
KCUB 
16nm SW 
242153Z AUTO 22009KT 10SM CLR 34/19 A2987 RMK AO2 SLP111 T03390194
KSSC 
17nm SE 
242156Z AUTO 21014KT 10SM CLR 34/21 A2986 RMK AO2 SLP111 T03370208 $
KFDW 
21nm NW 
242235Z AUTO 24008G14KT 10SM SCT060 32/20 A2988 RMK AO1
KSMS 
21nm SE 
242235Z AUTO 21006G14KT 10SM CLR 33/21 A2987 RMK AO2
KCAE 
22nm SW 
242156Z 22011G17KT 10SM FEW060 33/19 A2986 RMK AO2 SLP109 T03330194
TAF
KMMT 
14nm S 
241500Z 2415/2521 25006KT 9999 FEW040 SCT250 QNH2992INS BECMG 2417/2418 22010G15KT 9999 FEW035 QNH2983INS BECMG 2423/2424 25009KT 9999 FEW050 QNH2985INS TEMPO 2503/2506 26012G20KT 9999 VCTS BKN050CB BECMG 2511/2512 30009KT 9999 FEW050 QNH2990INS TX35/2421Z TN21/2512Z
KCUB 
16nm SW 
242050Z 2421/2518 20010G18KT P6SM SCT050 FM250000 21008KT P6SM VCTS SCT035CB BKN050 FM250500 26004KT P6SM SCT250 FM251400 29007KT P6SM FEW250
KSSC 
17nm SE 
241500Z 2415/2521 24009KT 9999 FEW040 SCT250 QNH2992INS BECMG 2417/2418 24010G15KT 9999 FEW050 QNH2983INS BECMG 2423/2424 25009KT 9999 FEW050 QNH2985INS TEMPO 2503/2505 26012G20KT 9999 VCTS BKN050CB BECMG 2511/2512 30009KT 9999 FEW050 QNH2990INS TX35/2421Z TN21/2512Z
NOTAMs
Click for the latest NOTAMs
NOTAMs are issued by the DoD/FAA and will open in a separate window not controlled by AirNav.

 

 
 

Would you like to see your business listed on this page?

 If your business provides an interesting product or service to pilots, flight crews, aircraft, or users of the Over the Hill Airport, you should consider listing it here.  To start the listing process, click on the button below
 
Add a business
 

Other Pages about Over the Hill Airport

Update a link
 
Copyright © AirNav, LLC. All rights reserved. Privacy Policy  Contact